Date,TemperatureHighF,TemperatureAvgF,TemperatureLowF,DewpointHighF,DewpointAvgF,DewpointLowF,HumidityHigh,HumidityAvg,HumidityLow,PressureMaxIn,PressureMinIn,WindSpeedMaxMPH,WindSpeedAvgMPH,GustSpeedMaxMPH,PrecipitationSumIn
2013-2-1,26,15,-1,-100,-100,-100,0,0,100,0.00,40.00,0,-999,0,0.00
2013-2-2,36,25,23,-100,-100,-100,0,0,100,0.00,40.00,0,-999,0,0.00
2013-2-3,40,32,24,-100,-100,-100,0,0,100,0.00,40.00,0,-999,0,0.00
2013-2-4,36,26,21,-100,-100,-100,0,0,100,0.00,40.00,0,-999,0,0.00
2013-2-5,43,33,25,-100,-100,-100,0,0,100,0.00,40.00,0,-999,0,0.00
2013-2-6,44,36,25,-100,-100,-100,0,0,100,0.00,40.00,0,-999,0,0.00
2013-2-7,44,33,28,-100,-100,-100,0,0,100,0.00,40.00,0,-999,0,0.00
2013-2-8,32,27,24,-100,-100,-100,0,0,100,0.00,40.00,0,-999,0,0.00
2013-2-9,44,36,29,-100,-100,-100,0,0,100,0.00,40.00,0,-999,0,0.00
2013-2-10,43,36,29,-100,-100,-100,0,0,100,0.00,40.00,0,-999,0,0.00
2013-2-11,32,28,25,-100,-100,-100,0,0,100,0.00,40.00,0,-999,0,0.00
2013-2-12,47,30,21,-100,-100,-100,0,0,100,0.00,40.00,0,-999,0,0.00
2013-2-13,51,36,21,-100,-100,-100,0,0,100,0.00,40.00,0,-999,0,0.00
2013-2-14,40,36,25,-100,-100,-100,0,0,100,0.00,40.00,0,-999,0,0.00
2013-2-15,27,20,14,-100,-100,-100,0,0,100,0.00,40.00,0,-999,0,0.00
2013-2-16,31,23,7,-100,-100,-100,0,0,100,0.00,40.00,0,-999,0,0.00
2013-2-17,50,33,24,-100,-100,-100,0,0,100,0.00,40.00,0,-999,0,0.00
2013-2-18,44,39,35,-100,-100,-100,0,0,100,0.00,40.00,0,-999,0,0.00
2013-2-19,20,11,7,-100,-100,-100,0,0,100,0.00,40.00,0,-999,0,0.00
2013-2-20,21,8,3,-100,-100,-100,0,0,100,0.00,40.00,0,-999,0,0.00
2013-2-21,21,19,19,-100,-100,-100,0,0,100,0.00,40.00,0,-999,0,0.00
2013-2-22,19,18,15,-100,-100,-100,0,0,100,0.00,40.00,0,-999,0,0.00
2013-2-23,32,23,1,-100,-100,-100,0,0,100,0.00,40.00,0,-999,0,0.00
2013-2-24,36,27,21,-100,-100,-100,0,0,100,0.00,40.00,0,-999,0,0.00
2013-2-25,36,26,23,-100,-100,-100,0,0,100,0.00,40.00,0,-999,0,0.00
2013-2-26,29,24,22,-100,-100,-100,0,0,100,0.00,40.00,0,-999,0,0.00
2013-2-27,30,26,25,-100,-100,-100,0,0,100,0.00,40.00,0,-999,0,0.00
2013-2-28,30,25,24,-100,-100,-100,0,0,100,0.00,40.00,0,-999,0,0.00